createdAt,value
2019-03-15T00:00:07.826Z,8.40
2019-03-15T00:02:35.902Z,8.40
2019-03-15T00:05:05.848Z,8.50
2019-03-15T00:07:34.499Z,8.50
2019-03-15T00:10:03.595Z,8.50
2019-03-15T00:12:32.385Z,8.60
2019-03-15T00:15:01.275Z,8.50
2019-03-15T00:17:30.166Z,8.50
2019-03-15T00:19:58.857Z,8.50
2019-03-15T00:22:27.748Z,8.50
2019-03-15T00:24:56.530Z,8.50
2019-03-15T00:27:25.320Z,8.50
2019-03-15T00:29:54.112Z,8.50
2019-03-15T00:32:22.895Z,8.40
2019-03-15T00:34:51.680Z,8.30
2019-03-15T00:37:20.469Z,8.20
2019-03-15T00:39:49.470Z,8.10
2019-03-15T00:42:18.255Z,8.10
2019-03-15T00:44:47.042Z,8.00
2019-03-15T00:47:15.829Z,8.00
2019-03-15T00:49:44.707Z,8.00
2019-03-15T00:52:13.608Z,8.00
2019-03-15T00:54:42.500Z,8.00
2019-03-15T00:57:11.392Z,8.00
2019-03-15T00:59:40.278Z,8.00
2019-03-15T01:02:09.072Z,8.00
2019-03-15T01:04:37.855Z,7.90
2019-03-15T01:07:06.647Z,8.00
2019-03-15T01:09:35.533Z,7.90
2019-03-15T01:12:04.422Z,7.90
2019-03-15T01:14:33.210Z,7.90
2019-03-15T01:17:01.896Z,7.90
2019-03-15T01:19:30.686Z,7.80
2019-03-15T01:21:59.476Z,7.90
2019-03-15T01:24:28.265Z,7.90
2019-03-15T01:26:57.154Z,7.90
2019-03-15T01:29:25.943Z,8.00
2019-03-15T01:31:54.695Z,8.00
2019-03-15T01:34:23.415Z,8.10
2019-03-15T01:36:52.307Z,8.20
2019-03-15T01:39:21.194Z,8.20
2019-03-15T01:41:50.086Z,8.20
2019-03-15T01:44:18.874Z,8.20
2019-03-15T01:46:47.662Z,8.20
2019-03-15T01:49:16.859Z,8.30
2019-03-15T01:51:45.759Z,8.30
2019-03-15T01:54:14.537Z,8.30
2019-03-15T01:56:43.359Z,8.30
2019-03-15T01:59:12.217Z,8.30
2019-03-15T02:01:41.111Z,8.40
2019-03-15T02:04:10.003Z,8.40
2019-03-15T02:06:38.891Z,8.40
2019-03-15T02:09:09.290Z,8.40
2019-03-15T02:11:38.412Z,8.40
2019-03-15T02:14:07.199Z,8.30
2019-03-15T02:16:36.100Z,8.40
2019-03-15T02:19:04.982Z,8.40
2019-03-15T02:21:33.875Z,8.40
2019-03-15T02:24:03.684Z,8.50
2019-03-15T02:26:32.678Z,8.50
2019-03-15T02:29:01.568Z,8.50
2019-03-15T02:31:30.458Z,8.60
2019-03-15T02:34:00.158Z,8.60
2019-03-15T02:36:29.268Z,8.70
2019-03-15T02:38:58.053Z,8.70
2019-03-15T02:41:26.841Z,8.70
2019-03-15T02:43:55.628Z,8.70
2019-03-15T02:46:25.802Z,8.70
2019-03-15T02:48:54.941Z,8.70
2019-03-15T02:51:23.729Z,8.60
2019-03-15T02:53:52.520Z,8.60
2019-03-15T02:56:21.414Z,8.50
2019-03-15T02:58:50.197Z,8.50
2019-03-15T03:01:18.984Z,8.50
2019-03-15T03:03:47.872Z,8.50
2019-03-15T03:06:16.870Z,8.50
2019-03-15T03:08:45.559Z,8.50
2019-03-15T03:11:14.445Z,8.50
2019-03-15T03:13:43.239Z,8.50
2019-03-15T03:16:12.023Z,8.50
2019-03-15T03:18:40.705Z,8.40
2019-03-15T03:21:09.496Z,8.50
2019-03-15T03:23:38.288Z,8.50
2019-03-15T03:26:07.078Z,8.40
2019-03-15T03:28:35.965Z,8.40
2019-03-15T03:31:04.942Z,8.40
2019-03-15T03:33:33.861Z,8.40
2019-03-15T03:36:02.898Z,8.40
2019-03-15T03:38:31.932Z,8.50
2019-03-15T03:41:00.929Z,8.40
2019-03-15T03:43:29.815Z,8.40
2019-03-15T03:45:58.509Z,8.40
2019-03-15T03:48:27.289Z,8.30
2019-03-15T03:50:56.081Z,8.30
2019-03-15T03:53:24.973Z,8.30
2019-03-15T03:55:54.062Z,8.30
2019-03-15T03:58:23.062Z,8.30
2019-03-15T04:00:51.848Z,8.30
2019-03-15T04:03:20.633Z,8.30
2019-03-15T04:05:49.525Z,8.30
2019-03-15T04:08:18.413Z,8.40
2019-03-15T04:10:47.206Z,8.30
2019-03-15T04:13:16.094Z,8.40
2019-03-15T04:15:45.086Z,8.30
2019-03-15T04:18:13.876Z,8.30
2019-03-15T04:20:42.766Z,8.40
2019-03-15T04:23:11.455Z,8.40
2019-03-15T04:25:40.668Z,8.40
2019-03-15T04:28:09.744Z,8.50
2019-03-15T04:30:38.530Z,8.50
2019-03-15T04:33:07.423Z,8.50
2019-03-15T04:35:36.109Z,8.50
2019-03-15T04:38:04.998Z,8.50
2019-03-15T04:40:33.788Z,8.50
2019-03-15T04:43:02.572Z,8.50
2019-03-15T04:45:31.364Z,8.50
2019-03-15T04:48:00.251Z,8.60
2019-03-15T04:50:29.247Z,8.60
2019-03-15T04:52:58.044Z,8.60
2019-03-15T04:55:26.821Z,8.70
2019-03-15T04:57:55.610Z,8.70
2019-03-15T05:00:24.400Z,8.80
2019-03-15T05:02:53.086Z,8.70
2019-03-15T05:05:21.773Z,8.80
2019-03-15T05:07:50.555Z,8.70
2019-03-15T05:10:19.452Z,8.70
2019-03-15T05:12:48.244Z,8.80
2019-03-15T05:15:17.130Z,8.80
2019-03-15T05:17:45.922Z,8.80
2019-03-15T05:20:14.906Z,8.90
2019-03-15T05:22:43.798Z,8.90
2019-03-15T05:25:12.584Z,9.00
2019-03-15T05:27:41.372Z,9.00
2019-03-15T05:30:11.807Z,9.00
2019-03-15T05:32:40.567Z,9.10
2019-03-15T05:35:09.477Z,9.10
2019-03-15T05:37:38.265Z,9.20
2019-03-15T05:40:08.289Z,9.30
2019-03-15T05:42:37.174Z,9.30
2019-03-15T05:45:09.243Z,9.30
2019-03-15T05:47:38.026Z,9.40
2019-03-15T05:50:09.784Z,9.50
2019-03-15T05:52:38.571Z,9.50
2019-03-15T05:55:10.103Z,9.60
2019-03-15T05:57:38.994Z,9.70
2019-03-15T06:00:12.111Z,9.70
2019-03-15T06:02:41.086Z,9.80
2019-03-15T06:05:10.373Z,9.80
2019-03-15T06:07:39.186Z,9.90
2019-03-15T06:10:13.195Z,9.90
2019-03-15T06:12:41.991Z,10.00
2019-03-15T06:15:11.349Z,10.00
2019-03-15T06:17:40.175Z,10.10
2019-03-15T06:20:12.607Z,10.20
2019-03-15T06:22:40.720Z,10.30
2019-03-15T06:25:12.843Z,10.30
2019-03-15T06:27:41.677Z,10.30
2019-03-15T06:30:12.658Z,10.40
2019-03-15T06:32:41.505Z,10.40
2019-03-15T06:35:10.693Z,10.50
2019-03-15T06:37:39.593Z,10.50
2019-03-15T06:40:13.342Z,10.60
2019-03-15T06:42:40.763Z,10.60
2019-03-15T06:45:13.691Z,10.60
2019-03-15T06:47:42.630Z,10.70
2019-03-15T06:50:11.677Z,10.70
2019-03-15T06:52:40.622Z,10.70
2019-03-15T06:55:09.947Z,10.70
2019-03-15T06:57:38.705Z,10.80
2019-03-15T07:00:15.430Z,10.80
2019-03-15T07:02:44.282Z,10.80
2019-03-15T07:05:13.260Z,10.80
2019-03-15T07:07:42.052Z,10.80
2019-03-15T07:10:11.581Z,10.90
2019-03-15T07:12:40.886Z,10.90
2019-03-15T07:15:11.339Z,10.90
2019-03-15T07:17:40.179Z,10.90
2019-03-15T07:20:14.387Z,10.90
2019-03-15T07:22:43.279Z,11.00
2019-03-15T07:25:12.872Z,11.00
2019-03-15T07:27:42.680Z,11.00
2019-03-15T07:30:13.622Z,11.00
2019-03-15T07:32:42.523Z,11.00
2019-03-15T07:35:11.418Z,11.00
2019-03-15T07:37:40.206Z,11.00
2019-03-15T07:40:10.629Z,11.00
2019-03-15T07:42:39.525Z,11.10
2019-03-15T07:45:11.285Z,11.10
2019-03-15T07:47:40.070Z,11.10
2019-03-15T07:50:13.915Z,11.10
2019-03-15T07:52:41.844Z,11.20
2019-03-15T07:55:11.234Z,11.20
2019-03-15T07:57:40.545Z,11.20
2019-03-15T08:00:12.095Z,11.20
2019-03-15T08:02:40.890Z,11.20
2019-03-15T08:05:09.978Z,11.20
2019-03-15T08:07:44.854Z,11.20
2019-03-15T08:10:12.825Z,11.30
2019-03-15T08:12:41.365Z,11.20
2019-03-15T08:15:11.661Z,11.30
2019-03-15T08:17:40.473Z,11.20
2019-03-15T08:20:14.340Z,11.20
2019-03-15T08:22:43.480Z,11.20
2019-03-15T08:25:12.972Z,11.20
2019-03-15T08:27:42.085Z,11.20
2019-03-15T08:30:13.277Z,11.20
2019-03-15T08:32:43.902Z,11.30
2019-03-15T08:35:14.180Z,11.30
2019-03-15T08:37:43.065Z,11.30
2019-03-15T08:40:15.586Z,11.30
2019-03-15T08:42:43.728Z,11.30
2019-03-15T08:45:20.593Z,11.30
2019-03-15T08:47:49.386Z,11.30
2019-03-15T08:50:19.084Z,11.30
2019-03-15T08:52:47.892Z,11.40
2019-03-15T08:55:16.870Z,11.40
2019-03-15T08:57:45.569Z,11.40
2019-03-15T09:00:18.750Z,11.50
2019-03-15T09:02:47.640Z,11.50
2019-03-15T09:05:16.819Z,11.60
2019-03-15T09:07:45.726Z,11.60
2019-03-15T09:10:23.354Z,11.60
2019-03-15T09:12:46.378Z,11.60
2019-03-15T09:15:15.372Z,11.70
2019-03-15T09:17:44.157Z,11.60
2019-03-15T09:20:15.390Z,11.70
2019-03-15T09:22:44.152Z,11.70
2019-03-15T09:25:19.799Z,11.60
2019-03-15T09:27:45.668Z,11.50
2019-03-15T09:30:23.106Z,11.50
2019-03-15T09:32:46.306Z,11.40
2019-03-15T09:35:15.213Z,11.40
2019-03-15T09:37:46.997Z,11.40
2019-03-15T09:40:17.996Z,11.40
2019-03-15T09:42:46.795Z,11.40
2019-03-15T09:45:17.196Z,11.40
2019-03-15T09:47:46.100Z,11.40
2019-03-15T09:50:26.530Z,11.40
2019-03-15T09:52:48.386Z,11.40
2019-03-15T09:55:17.175Z,11.50
2019-03-15T09:57:46.079Z,11.50
2019-03-15T10:00:18.784Z,11.50
2019-03-15T10:02:47.637Z,11.60
2019-03-15T10:05:16.529Z,11.60
2019-03-15T10:07:45.465Z,11.70
2019-03-15T10:10:20.774Z,11.80
2019-03-15T10:12:49.868Z,11.80
2019-03-15T10:15:19.061Z,11.90
2019-03-15T10:17:47.945Z,11.90
2019-03-15T10:20:16.837Z,11.80
2019-03-15T10:22:45.796Z,11.90
2019-03-15T10:25:15.705Z,11.90
2019-03-15T10:27:44.617Z,12.00
2019-03-15T10:30:20.164Z,12.00
2019-03-15T10:32:48.992Z,12.10
2019-03-15T10:35:17.961Z,12.10
2019-03-15T10:37:46.747Z,12.10
2019-03-15T10:40:17.591Z,12.10
2019-03-15T10:42:46.367Z,12.20
2019-03-15T10:45:15.259Z,12.20
2019-03-15T10:47:44.254Z,12.20
2019-03-15T10:50:17.505Z,12.20
2019-03-15T10:52:46.438Z,12.30
2019-03-15T10:55:15.432Z,12.30
2019-03-15T10:57:44.322Z,12.30
2019-03-15T11:00:18.230Z,12.40
2019-03-15T11:02:47.123Z,12.40
2019-03-15T11:05:16.015Z,12.50
2019-03-15T11:07:44.900Z,12.50
2019-03-15T11:10:14.101Z,12.50
2019-03-15T11:12:42.998Z,12.50
2019-03-15T11:15:15.775Z,12.50
2019-03-15T11:17:44.460Z,12.50
2019-03-15T11:20:13.850Z,12.60
2019-03-15T11:22:42.749Z,12.60
2019-03-15T11:25:12.246Z,12.60
2019-03-15T11:27:41.041Z,12.60
2019-03-15T11:30:13.750Z,12.60
2019-03-15T11:32:42.705Z,12.60
2019-03-15T11:35:12.516Z,12.70
2019-03-15T11:37:41.522Z,12.70
2019-03-15T11:40:15.202Z,12.80
2019-03-15T11:42:44.114Z,12.90
2019-03-15T11:45:13.924Z,12.90
2019-03-15T11:48:01.182Z,12.90
2019-03-15T11:50:18.668Z,13.00
2019-03-15T11:52:47.558Z,13.00
2019-03-15T11:55:16.452Z,13.00
2019-03-15T11:57:46.264Z,13.00
2019-03-15T12:00:18.779Z,13.00
2019-03-15T12:02:46.918Z,13.00
2019-03-15T12:05:16.302Z,13.00
2019-03-15T12:07:45.212Z,13.00
2019-03-15T12:10:17.799Z,13.00
2019-03-15T12:12:46.571Z,13.00
2019-03-15T12:15:19.282Z,13.00
2019-03-15T12:17:48.342Z,13.00
2019-03-15T12:20:18.887Z,13.00
2019-03-15T12:22:47.658Z,13.10
2019-03-15T12:25:16.653Z,13.10
2019-03-15T12:27:45.443Z,13.10
2019-03-15T12:30:15.414Z,13.20
2019-03-15T12:32:44.350Z,13.20
2019-03-15T12:35:16.707Z,13.20
2019-03-15T12:37:45.541Z,13.10
2019-03-15T12:40:17.984Z,13.20
2019-03-15T12:42:46.863Z,13.20
2019-03-15T12:45:15.976Z,13.10
2019-03-15T12:47:44.863Z,13.00
2019-03-15T12:50:14.508Z,12.90
2019-03-15T12:52:47.651Z,12.80
2019-03-15T12:55:14.619Z,12.80
2019-03-15T12:57:43.504Z,12.70
2019-03-15T13:00:20.481Z,12.60
2019-03-15T13:02:49.587Z,12.60
2019-03-15T13:05:18.572Z,12.60
2019-03-15T13:07:47.545Z,12.40
2019-03-15T13:10:18.066Z,12.30
2019-03-15T13:12:46.870Z,12.30
2019-03-15T13:15:16.750Z,12.30
2019-03-15T13:17:46.085Z,12.30
2019-03-15T13:20:17.158Z,12.30
2019-03-15T13:22:46.121Z,12.20
2019-03-15T13:25:15.010Z,12.20
2019-03-15T13:27:43.904Z,12.20
2019-03-15T13:30:14.530Z,12.20
2019-03-15T13:32:43.317Z,12.10
2019-03-15T13:35:12.297Z,12.20
2019-03-15T13:37:42.927Z,12.20
2019-03-15T13:40:13.156Z,12.30
2019-03-15T13:42:42.157Z,12.30
2019-03-15T13:45:12.466Z,12.40
2019-03-15T13:47:41.378Z,12.40
2019-03-15T13:50:15.939Z,12.40
2019-03-15T13:52:44.786Z,12.40
2019-03-15T13:55:13.782Z,12.40
2019-03-15T13:57:42.911Z,12.40
2019-03-15T14:00:14.070Z,12.50
2019-03-15T14:02:42.911Z,12.50
2019-03-15T14:05:11.807Z,12.50
2019-03-15T14:07:40.803Z,12.50
2019-03-15T14:10:18.999Z,12.60
2019-03-15T14:12:47.903Z,12.60
2019-03-15T14:15:18.948Z,12.60
2019-03-15T14:17:47.878Z,12.70
2019-03-15T14:20:16.918Z,12.70
2019-03-15T14:22:45.811Z,12.70
2019-03-15T14:25:26.372Z,12.70
2019-03-15T14:27:55.364Z,12.70
2019-03-15T14:30:24.357Z,12.60
2019-03-15T14:32:53.193Z,12.50
2019-03-15T14:35:22.059Z,12.40
2019-03-15T14:37:51.041Z,12.40
2019-03-15T14:40:20.608Z,12.40
2019-03-15T14:42:49.684Z,12.40
2019-03-15T14:45:18.702Z,12.30
2019-03-15T14:47:47.724Z,12.10
2019-03-15T14:50:16.591Z,12.00
2019-03-15T14:52:45.750Z,11.90
2019-03-15T14:55:16.296Z,11.80
2019-03-15T14:57:53.591Z,11.90
2019-03-15T15:00:20.773Z,11.80
2019-03-15T15:02:49.873Z,11.80
2019-03-15T15:05:18.668Z,11.80
2019-03-15T15:07:47.658Z,11.70
2019-03-15T15:10:17.549Z,11.60
2019-03-15T15:12:46.456Z,11.60
2019-03-15T15:15:19.453Z,11.60
2019-03-15T15:17:48.336Z,11.60
2019-03-15T15:20:17.436Z,11.60
2019-03-15T15:22:47.444Z,11.60
2019-03-15T15:25:17.464Z,11.60
2019-03-15T15:27:46.464Z,11.60
2019-03-15T15:30:19.145Z,11.60
2019-03-15T15:32:48.027Z,11.50
2019-03-15T15:35:16.947Z,11.60
2019-03-15T15:37:45.914Z,11.60
2019-03-15T15:40:19.410Z,11.50
2019-03-15T15:42:48.411Z,11.50
2019-03-15T15:45:17.293Z,11.50
2019-03-15T15:47:46.179Z,11.50
2019-03-15T15:50:15.860Z,11.50
2019-03-15T15:52:44.887Z,11.50
2019-03-15T15:55:15.911Z,11.50
2019-03-15T15:57:44.813Z,11.40
2019-03-15T16:00:18.371Z,11.40
2019-03-15T16:02:47.516Z,11.40
2019-03-15T16:05:16.502Z,11.50
2019-03-15T16:07:46.840Z,11.50
2019-03-15T16:10:18.005Z,11.50
2019-03-15T16:12:46.574Z,11.50
2019-03-15T16:15:17.594Z,11.50
2019-03-15T16:17:46.493Z,11.50
2019-03-15T16:20:15.595Z,11.50
2019-03-15T16:22:44.694Z,11.50
2019-03-15T16:25:13.933Z,11.50
2019-03-15T16:27:42.883Z,11.50
2019-03-15T16:30:15.037Z,11.50
2019-03-15T16:32:46.058Z,11.60
2019-03-15T16:35:15.654Z,11.60
2019-03-15T16:37:45.594Z,11.60
2019-03-15T16:40:15.739Z,11.60
2019-03-15T16:42:44.620Z,11.60
2019-03-15T16:45:19.535Z,11.60
2019-03-15T16:47:48.515Z,11.60
2019-03-15T16:50:18.015Z,11.60
2019-03-15T16:52:46.719Z,11.60
2019-03-15T16:55:15.609Z,11.60
2019-03-15T16:57:44.400Z,11.60
2019-03-15T17:00:16.721Z,11.50
2019-03-15T17:02:45.560Z,11.60
2019-03-15T17:05:15.174Z,11.60
2019-03-15T17:07:44.054Z,11.70
2019-03-15T17:10:14.584Z,11.70
2019-03-15T17:12:43.478Z,11.70
2019-03-15T17:15:15.131Z,11.70
2019-03-15T17:17:44.019Z,11.70
2019-03-15T17:20:13.117Z,11.70
2019-03-15T17:22:42.008Z,11.70
2019-03-15T17:25:12.303Z,11.70
2019-03-15T17:27:41.223Z,11.70
2019-03-15T17:30:16.967Z,11.60
2019-03-15T17:32:45.871Z,11.60
2019-03-15T17:35:15.939Z,11.60
2019-03-15T17:37:44.973Z,11.70
2019-03-15T17:40:21.753Z,11.60
2019-03-15T17:42:50.840Z,11.60
2019-03-15T17:45:19.964Z,11.60
2019-03-15T17:47:49.147Z,11.60
2019-03-15T17:50:22.153Z,11.70
2019-03-15T17:52:51.109Z,11.70
2019-03-15T17:55:20.214Z,11.70
2019-03-15T17:57:49.213Z,11.70
2019-03-15T18:00:37.349Z,11.80
2019-03-15T18:03:19.787Z,11.80
2019-03-15T18:05:38.200Z,11.80
2019-03-15T18:08:07.089Z,11.80
2019-03-15T18:10:36.090Z,11.80
2019-03-15T18:13:05.289Z,11.90
2019-03-15T18:15:34.174Z,11.90
2019-03-15T18:18:03.063Z,11.90
2019-03-15T18:20:32.054Z,11.90
2019-03-15T18:23:00.945Z,11.90
2019-03-15T18:25:29.940Z,11.90
2019-03-15T18:27:58.831Z,11.90
2019-03-15T18:30:27.724Z,11.90
2019-03-15T18:32:56.619Z,11.90
2019-03-15T18:35:33.439Z,11.90
2019-03-15T18:37:56.031Z,11.90
2019-03-15T18:40:24.816Z,11.90
2019-03-15T18:42:53.817Z,11.90
2019-03-15T18:45:22.900Z,11.80
2019-03-15T18:47:51.902Z,11.90
2019-03-15T18:50:24.885Z,11.90
2019-03-15T18:52:53.865Z,11.80
2019-03-15T18:55:22.862Z,11.70
2019-03-15T18:57:52.587Z,11.70
2019-03-15T19:00:25.300Z,11.70
2019-03-15T19:02:54.255Z,11.70
2019-03-15T19:05:24.070Z,11.70
2019-03-15T19:07:52.955Z,11.60
2019-03-15T19:10:21.956Z,11.60
2019-03-15T19:12:54.365Z,11.60
2019-03-15T19:15:22.399Z,11.60
2019-03-15T19:17:51.492Z,11.60
2019-03-15T19:20:20.382Z,11.60
2019-03-15T19:22:49.267Z,11.70
2019-03-15T19:25:18.158Z,11.70
2019-03-15T19:27:46.945Z,11.70
2019-03-15T19:30:17.086Z,11.70
2019-03-15T19:32:45.957Z,11.70
2019-03-15T19:35:15.054Z,11.80
2019-03-15T19:37:43.951Z,11.80
2019-03-15T19:40:15.291Z,11.80
2019-03-15T19:42:45.543Z,11.80
2019-03-15T19:45:16.453Z,11.80
2019-03-15T19:47:45.556Z,11.80
2019-03-15T19:50:17.089Z,11.80
2019-03-15T19:52:45.992Z,11.80
2019-03-15T19:55:16.008Z,11.80
2019-03-15T19:57:45.207Z,11.80
2019-03-15T20:00:16.671Z,11.80
2019-03-15T20:02:45.960Z,11.90
2019-03-15T20:05:15.413Z,11.90
2019-03-15T20:07:45.438Z,11.80
2019-03-15T20:10:17.311Z,11.70
2019-03-15T20:12:47.608Z,11.60
2019-03-15T20:15:17.737Z,11.60
2019-03-15T20:17:46.589Z,11.50
2019-03-15T20:20:17.132Z,11.50
2019-03-15T20:22:46.079Z,11.50
2019-03-15T20:25:18.687Z,11.50
2019-03-15T20:27:47.660Z,11.50
2019-03-15T20:30:24.566Z,11.50
2019-03-15T20:32:55.538Z,11.50
2019-03-15T20:35:31.543Z,11.50
2019-03-15T20:38:06.197Z,11.50
2019-03-15T20:40:40.503Z,11.50
2019-03-15T20:43:12.613Z,11.50
2019-03-15T20:45:49.043Z,11.50
2019-03-15T20:48:25.129Z,11.50
2019-03-15T20:51:22.375Z,11.50
2019-03-15T20:53:59.640Z,11.50
2019-03-15T20:56:56.296Z,11.40
2019-03-15T20:59:30.685Z,11.40
2019-03-15T21:02:23.657Z,11.40
2019-03-15T21:04:57.215Z,11.30
2019-03-15T21:07:29.815Z,11.30
2019-03-15T21:10:04.140Z,11.30
2019-03-15T21:12:37.703Z,11.40
2019-03-15T21:15:18.627Z,11.40
2019-03-15T21:17:51.655Z,11.40
2019-03-15T21:20:22.859Z,11.40
2019-03-15T21:22:55.484Z,11.40
2019-03-15T21:25:29.022Z,11.30
2019-03-15T21:28:01.347Z,11.40
2019-03-15T21:30:47.543Z,11.40
2019-03-15T21:33:10.293Z,11.40
2019-03-15T21:35:43.943Z,11.40
2019-03-15T21:38:18.546Z,11.40
2019-03-15T21:40:47.542Z,11.40
2019-03-15T21:43:23.887Z,11.40
2019-03-15T21:45:59.415Z,11.40
2019-03-15T21:48:28.958Z,11.40
2019-03-15T21:50:59.897Z,11.50
2019-03-15T21:53:28.802Z,11.50
2019-03-15T21:55:57.681Z,11.50
2019-03-15T21:58:26.776Z,11.40
2019-03-15T22:01:02.418Z,11.40
2019-03-15T22:03:26.287Z,11.40
2019-03-15T22:05:55.392Z,11.40
2019-03-15T22:08:24.594Z,11.30
2019-03-15T22:10:53.480Z,11.40
2019-03-15T22:13:22.977Z,11.40
2019-03-15T22:18:26.395Z,11.40
2019-03-15T22:20:55.194Z,11.40
2019-03-15T22:23:23.973Z,11.20
2019-03-15T22:25:52.863Z,10.90
2019-03-15T22:28:21.754Z,10.60
2019-03-15T22:30:50.750Z,10.50
2019-03-15T22:33:19.538Z,10.50
2019-03-15T22:35:48.528Z,10.50
2019-03-15T22:38:26.066Z,10.50
2019-03-15T22:40:50.083Z,10.40
2019-03-15T22:43:19.092Z,10.40
2019-03-15T22:45:48.015Z,10.40
2019-03-15T22:48:16.870Z,10.30
2019-03-15T22:50:45.665Z,10.20
2019-03-15T22:53:14.762Z,10.30
2019-03-15T22:55:43.543Z,10.30
2019-03-15T22:58:12.874Z,10.30
2019-03-15T23:00:42.043Z,10.40
2019-03-15T23:03:11.135Z,10.20
2019-03-15T23:05:40.134Z,10.10
2019-03-15T23:08:09.612Z,10.00
2019-03-15T23:10:38.715Z,9.90
2019-03-15T23:13:07.827Z,9.80
2019-03-15T23:15:37.578Z,9.80
2019-03-15T23:18:06.425Z,9.80
2019-03-15T23:20:35.215Z,9.80
2019-03-15T23:23:04.547Z,9.80
2019-03-15T23:25:33.355Z,9.70
2019-03-15T23:28:02.396Z,9.70
2019-03-15T23:30:31.286Z,9.70
2019-03-15T23:33:00.265Z,9.60
2019-03-15T23:35:29.271Z,9.60
2019-03-15T23:37:58.674Z,9.50
2019-03-15T23:40:27.568Z,9.50
2019-03-15T23:42:56.661Z,9.60
2019-03-15T23:45:25.846Z,9.50
2019-03-15T23:47:54.648Z,9.50
2019-03-15T23:50:23.639Z,9.50
2019-03-15T23:52:52.530Z,9.50
2019-03-15T23:55:21.319Z,9.50
2019-03-15T23:57:50.108Z,9.50
